Time,TemperatureF,DewpointF,PressureIn,WindDirection,WindDirectionDegrees,WindSpeedMPH,WindSpeedGustMPH,Humidity,HourlyPrecipIn,Conditions,Clouds,dailyrainin,SolarRadiationWatts/m^2,SoftwareType,DateUTC
2013-02-22 00:01:00,20.0,14.0,30.01,NNE,14,3.0,5.0,74,-99.99,,,-99.99,0.000000,,2013-02-22 08:01:00,
2013-02-22 00:10:00,19.0,13.0,30.01,SSW,204,3.0,4.0,78,-99.99,,,-99.99,0.000000,,2013-02-22 08:10:00,
2013-02-22 00:52:00,19.0,13.0,30.01,SSW,204,3.0,4.0,78,-99.99,,,-99.99,0.000000,,2013-02-22 08:52:00,
2013-02-22 01:03:00,19.0,13.0,30.01,SSW,204,3.0,4.0,78,-99.99,,,-99.99,0.000000,,2013-02-22 09:03:00,
2013-02-22 01:10:00,19.0,13.0,30.00,SW,216,4.0,6.0,76,-99.99,,,-99.99,0.000000,,2013-02-22 09:10:00,
2013-02-22 01:51:00,19.0,13.0,30.00,SW,216,4.0,6.0,76,-99.99,,,-99.99,0.000000,,2013-02-22 09:51:00,
2013-02-22 02:01:00,19.0,13.0,30.00,SW,216,4.0,6.0,76,-99.99,,,-99.99,0.000000,,2013-02-22 10:01:00,
2013-02-22 02:10:00,17.0,13.0,30.01,South,170,2.0,5.0,84,-99.99,,,-99.99,0.000000,,2013-02-22 10:10:00,
2013-02-22 02:51:00,17.0,13.0,30.01,South,170,2.0,5.0,84,-99.99,,,-99.99,0.000000,,2013-02-22 10:51:00,
2013-02-22 03:01:00,17.0,13.0,30.01,South,170,2.0,5.0,84,-99.99,,,-99.99,0.000000,,2013-02-22 11:01:00,
2013-02-22 03:10:00,20.0,13.0,30.01,NNE,29,2.0,4.0,77,-99.99,,,-99.99,0.000000,,2013-02-22 11:10:00,
2013-02-22 03:52:00,20.0,13.0,30.01,NNE,29,2.0,4.0,77,-99.99,,,-99.99,0.000000,,2013-02-22 11:52:00,
2013-02-22 04:02:00,20.0,13.0,30.01,NNE,29,2.0,4.0,77,-99.99,,,-99.99,0.000000,,2013-02-22 12:02:00,
2013-02-22 04:10:00,18.0,14.0,30.00,WNW,283,1.0,3.0,83,-99.99,,,-99.99,0.000000,,2013-02-22 12:10:00,
2013-02-22 04:52:00,18.0,14.0,30.00,WNW,283,1.0,3.0,83,-99.99,,,-99.99,0.000000,,2013-02-22 12:52:00,
2013-02-22 05:01:00,18.0,14.0,30.00,WNW,283,1.0,3.0,83,-99.99,,,-99.99,0.000000,,2013-02-22 13:01:00,
2013-02-22 05:10:00,17.0,13.0,30.02,NNW,340,3.0,5.0,82,-99.99,,,-99.99,0.000000,,2013-02-22 13:10:00,
2013-02-22 05:51:00,17.0,13.0,30.02,NNW,340,3.0,5.0,82,-99.99,,,-99.99,0.000000,,2013-02-22 13:51:00,
2013-02-22 06:01:00,17.0,13.0,30.02,NNW,340,3.0,5.0,82,-99.99,,,-99.99,0.000000,,2013-02-22 14:01:00,
2013-02-22 06:10:00,18.0,12.0,30.04,NNE,28,2.0,3.0,79,-99.99,,,-99.99,0.000000,,2013-02-22 14:10:00,
2013-02-22 06:52:00,18.0,12.0,30.04,NNE,28,2.0,3.0,79,-99.99,,,-99.99,0.000000,,2013-02-22 14:52:00,
2013-02-22 07:01:00,18.0,12.0,30.04,NNE,28,2.0,3.0,79,-99.99,,,-99.99,0.000000,,2013-02-22 15:01:00,
2013-02-22 07:10:00,24.0,15.0,30.05,SSE,167,2.0,5.0,68,-99.99,,,-99.99,170.000000,,2013-02-22 15:10:00,
2013-02-22 07:52:00,24.0,15.0,30.05,SSE,167,2.0,5.0,68,-99.99,,,-99.99,170.000000,,2013-02-22 15:52:00,
2013-02-22 08:01:00,24.0,15.0,30.05,SSE,167,2.0,5.0,68,-99.99,,,-99.99,170.000000,,2013-02-22 16:01:00,
2013-02-22 08:10:00,23.0,16.0,30.07,SSE,152,6.0,8.0,75,-99.99,,,-99.99,290.000000,,2013-02-22 16:10:00,
2013-02-22 08:52:00,23.0,16.0,30.07,SSE,152,6.0,8.0,75,-99.99,,,-99.99,290.000000,,2013-02-22 16:52:00,
2013-02-22 09:01:00,23.0,16.0,30.07,SSE,152,6.0,8.0,75,-99.99,,,-99.99,290.000000,,2013-02-22 17:01:00,
2013-02-22 09:10:00,31.0,13.0,30.09,WSW,245,2.0,6.0,48,-99.99,,,-99.99,480.000000,,2013-02-22 17:10:00,
2013-02-22 09:52:00,31.0,13.0,30.09,WSW,245,2.0,6.0,48,-99.99,,,-99.99,480.000000,,2013-02-22 17:52:00,
2013-02-22 10:01:00,31.0,13.0,30.09,WSW,245,2.0,6.0,48,-99.99,,,-99.99,480.000000,,2013-02-22 18:01:00,
2013-02-22 10:10:00,32.0,15.0,30.08,North,10,4.0,10.0,50,-99.99,,,-99.99,650.000000,,2013-02-22 18:10:00,
2013-02-22 10:51:00,32.0,15.0,30.08,North,10,4.0,10.0,50,-99.99,,,-99.99,650.000000,,2013-02-22 18:51:00,
2013-02-22 11:01:00,32.0,15.0,30.08,North,10,4.0,10.0,50,-99.99,,,-99.99,650.000000,,2013-02-22 19:01:00,
2013-02-22 11:10:00,35.0,14.0,30.08,NNE,25,5.0,11.0,42,-99.99,,,-99.99,740.000000,,2013-02-22 19:10:00,
2013-02-22 11:52:00,35.0,14.0,30.08,NNE,25,5.0,11.0,42,-99.99,,,-99.99,740.000000,,2013-02-22 19:52:00,
2013-02-22 12:01:00,35.0,14.0,30.08,NNE,25,5.0,11.0,42,-99.99,,,-99.99,740.000000,,2013-02-22 20:01:00,
2013-02-22 12:10:00,36.0,15.0,30.06,SSW,207,2.0,5.0,42,-99.99,,,-99.99,660.000000,,2013-02-22 20:10:00,
2013-02-22 12:52:00,36.0,15.0,30.06,SSW,207,2.0,5.0,42,-99.99,,,-99.99,660.000000,,2013-02-22 20:52:00,
2013-02-22 13:01:00,36.0,15.0,30.06,SSW,207,2.0,5.0,42,-99.99,,,-99.99,660.000000,,2013-02-22 21:01:00,
2013-02-22 13:10:00,36.0,15.0,30.05,SSE,157,6.0,14.0,42,-99.99,,,-99.99,350.000000,,2013-02-22 21:10:00,
2013-02-22 13:51:00,36.0,15.0,30.05,SSE,157,6.0,14.0,42,-99.99,,,-99.99,350.000000,,2013-02-22 21:51:00,
2013-02-22 14:01:00,36.0,15.0,30.05,SSE,157,6.0,14.0,42,-99.99,,,-99.99,350.000000,,2013-02-22 22:01:00,
2013-02-22 14:10:00,37.0,14.0,30.04,NE,50,3.0,6.0,38,-99.99,,,-99.99,400.000000,,2013-02-22 22:10:00,
2013-02-22 14:51:00,37.0,14.0,30.04,NE,50,3.0,6.0,38,-99.99,,,-99.99,400.000000,,2013-02-22 22:51:00,
2013-02-22 15:01:00,37.0,14.0,30.04,NE,50,3.0,6.0,38,-99.99,,,-99.99,400.000000,,2013-02-22 23:01:00,
2013-02-22 15:10:00,38.0,14.0,30.04,SSE,161,7.0,11.0,36,-99.99,,,-99.99,410.000000,,2013-02-22 23:10:00,
2013-02-22 15:52:00,38.0,14.0,30.04,SSE,161,7.0,11.0,36,-99.99,,,-99.99,410.000000,,2013-02-22 23:52:00,
2013-02-22 16:01:00,38.0,14.0,30.04,SSE,161,7.0,11.0,36,-99.99,,,-99.99,410.000000,,2013-02-23 00:01:00,
2013-02-22 16:10:00,37.0,14.0,30.03,South,175,7.0,10.0,39,-99.99,,,-99.99,160.000000,,2013-02-23 00:10:00,
2013-02-22 16:51:00,37.0,14.0,30.03,South,175,7.0,10.0,39,-99.99,,,-99.99,160.000000,,2013-02-23 00:51:00,
2013-02-22 17:01:00,37.0,14.0,30.03,South,175,7.0,10.0,39,-99.99,,,-99.99,160.000000,,2013-02-23 01:01:00,
2013-02-22 17:10:00,33.0,16.0,30.01,SW,219,3.0,5.0,49,-99.99,,,-99.99,20.000000,,2013-02-23 01:10:00,
2013-02-22 17:51:00,33.0,16.0,30.01,SW,219,3.0,5.0,49,-99.99,,,-99.99,20.000000,,2013-02-23 01:51:00,
2013-02-22 18:01:00,33.0,16.0,30.01,SW,219,3.0,5.0,49,-99.99,,,-99.99,20.000000,,2013-02-23 02:01:00,
2013-02-22 18:10:00,29.0,18.0,30.02,West,260,5.0,6.0,62,-99.99,,,-99.99,0.000000,,2013-02-23 02:10:00,
2013-02-22 18:52:00,29.0,18.0,30.02,West,260,5.0,6.0,62,-99.99,,,-99.99,0.000000,,2013-02-23 02:52:00,
2013-02-22 19:01:00,29.0,18.0,30.02,West,260,5.0,6.0,62,-99.99,,,-99.99,0.000000,,2013-02-23 03:01:00,
2013-02-22 19:10:00,28.0,18.0,30.03,SW,220,6.0,8.0,67,-99.99,,,-99.99,0.000000,,2013-02-23 03:10:00,
2013-02-22 19:51:00,28.0,18.0,30.03,SW,220,6.0,8.0,67,-99.99,,,-99.99,0.000000,,2013-02-23 03:51:00,
2013-02-22 20:01:00,28.0,18.0,30.03,SW,220,6.0,8.0,67,-99.99,,,-99.99,0.000000,,2013-02-23 04:01:00,
2013-02-22 20:10:00,28.0,18.0,30.02,West,259,4.0,8.0,66,-99.99,,,-99.99,0.000000,,2013-02-23 04:10:00,
2013-02-22 20:51:00,28.0,18.0,30.02,West,259,4.0,8.0,66,-99.99,,,-99.99,0.000000,,2013-02-23 04:51:00,
2013-02-22 21:02:00,28.0,18.0,30.02,West,259,4.0,8.0,66,-99.99,,,-99.99,0.000000,,2013-02-23 05:02:00,
2013-02-22 21:10:00,27.0,19.0,30.00,SW,231,5.0,8.0,71,-99.99,,,-99.99,0.000000,,2013-02-23 05:10:00,
2013-02-22 21:52:00,27.0,19.0,30.00,SW,231,5.0,8.0,71,-99.99,,,-99.99,0.000000,,2013-02-23 05:52:00,
2013-02-22 22:01:00,27.0,19.0,30.00,SW,231,5.0,8.0,71,-99.99,,,-99.99,0.000000,,2013-02-23 06:01:00,
2013-02-22 23:10:00,28.0,19.0,29.96,NW,307,3.0,6.0,67,-99.99,,,-99.99,0.000000,,2013-02-23 07:10:00,
2013-02-22 23:51:00,28.0,19.0,29.96,NW,307,3.0,6.0,67,-99.99,,,-99.99,0.000000,,2013-02-23 07:51:00,